Lincoln, Nebraska
Current Conditions -  °F | °C
As of 5:54 PM on Tuesday 25 Nov 2014 (Local Time) from KLNK Reporting Station
Overcast Overcast  
Wind Chill: 37°   Ceiling: 9000
Heat Index: 42°   Visibility: 10mi
Dew Point: 25°   Wind: 9mph
Humidity: 51%   Direction: 170°S
Pressure: 29.94"   Gusts: NA
Location:  40.81°N, 96.71°W
Report Text: KLNK 252354Z 17008KT 10SM OVC090 06/M04 A2994 RMK AO2 SLP151 T00561039 10094 20050 56009
Loading
Personal Weather Stations






























Interactive Weather Map New forecast layout! Learn more

10-Day Weather Forecast

Advertisements
Track Severe Weather on mobile